createdAt,value
2023-11-04T00:02:20.971Z,2.90
2023-11-04T00:07:23.981Z,2.90
2023-11-04T00:12:27.027Z,3.80
2023-11-04T00:17:30.533Z,3.40
2023-11-04T00:22:33.520Z,4.40
2023-11-04T00:27:36.605Z,3.80
2023-11-04T00:32:39.850Z,3.40
2023-11-04T00:37:42.946Z,3.70
2023-11-04T00:42:46.188Z,3.60
2023-11-04T00:47:49.328Z,4.70
2023-11-04T00:52:52.381Z,4.40
2023-11-04T00:57:56.808Z,3.70
2023-11-04T01:02:59.872Z,4.60
2023-11-04T01:08:02.980Z,4.70
2023-11-04T01:13:05.951Z,5.10
2023-11-04T01:18:09.562Z,4.10
2023-11-04T01:23:13.314Z,4.40
2023-11-04T01:28:16.403Z,5.00
2023-11-04T01:33:19.865Z,4.60
2023-11-04T01:38:23.015Z,4.10
2023-11-04T01:43:30.884Z,3.50
2023-11-04T01:48:33.984Z,3.00
2023-11-04T01:53:38.513Z,2.10
2023-11-04T01:58:46.217Z,2.40
2023-11-04T02:03:49.162Z,2.10
2023-11-04T02:08:52.436Z,2.50
2023-11-04T02:13:55.433Z,1.90
2023-11-04T02:18:59.099Z,1.70
2023-11-04T02:24:02.278Z,2.10
2023-11-04T02:29:05.603Z,1.40
2023-11-04T02:34:08.656Z,1.30
2023-11-04T02:39:11.703Z,1.50
2023-11-04T02:44:15.124Z,1.60
2023-11-04T02:49:18.185Z,1.60
2023-11-04T02:54:21.243Z,1.00
2023-11-04T02:59:25.829Z,1.10
2023-11-04T03:04:29.047Z,1.10
2023-11-04T03:09:32.686Z,1.10
2023-11-04T03:14:36.401Z,1.00
2023-11-04T03:19:39.847Z,1.10
2023-11-04T03:24:46.524Z,1.20
2023-11-04T03:29:49.855Z,1.00
2023-11-04T03:34:52.862Z,1.10
2023-11-04T03:39:55.931Z,1.20
2023-11-04T03:44:58.976Z,0.90
2023-11-04T03:50:02.808Z,1.00
2023-11-04T03:55:06.447Z,1.20
2023-11-04T04:00:10.389Z,1.10
2023-11-04T04:05:13.504Z,1.20
2023-11-04T04:10:17.185Z,1.10
2023-11-04T04:15:20.337Z,1.30
2023-11-04T04:20:23.300Z,1.00
2023-11-04T04:25:26.207Z,1.20
2023-11-04T04:30:29.229Z,1.10
2023-11-04T04:35:32.240Z,0.90
2023-11-04T04:40:35.244Z,1.00
2023-11-04T04:45:41.972Z,1.20
2023-11-04T04:50:45.051Z,1.00
2023-11-04T04:55:48.987Z,1.10
2023-11-04T05:00:52.098Z,1.20
2023-11-04T05:05:55.419Z,1.50
2023-11-04T05:10:59.734Z,1.90
2023-11-04T05:16:02.757Z,1.80
2023-11-04T05:21:06.842Z,2.20
2023-11-04T05:26:09.864Z,2.00
2023-11-04T05:31:12.706Z,1.60
2023-11-04T05:36:19.946Z,2.40
2023-11-04T05:41:23.084Z,1.60
2023-11-04T05:46:26.090Z,1.50
2023-11-04T05:51:29.125Z,2.00
2023-11-04T05:56:32.110Z,1.90
2023-11-04T06:01:35.212Z,1.70
2023-11-04T06:06:38.309Z,2.20
2023-11-04T06:11:41.452Z,2.50
2023-11-04T06:16:44.749Z,2.80
2023-11-04T06:21:48.200Z,3.10
2023-11-04T06:26:51.289Z,2.50
2023-11-04T06:31:54.280Z,3.80
2023-11-04T06:36:57.350Z,3.70
2023-11-04T06:42:01.117Z,3.10
2023-11-04T06:47:04.228Z,3.40
2023-11-04T06:52:07.227Z,3.50
2023-11-04T06:57:10.248Z,4.10
2023-11-04T07:02:13.760Z,4.00
2023-11-04T07:07:16.864Z,3.30
2023-11-04T07:12:19.975Z,3.00
2023-11-04T07:17:23.002Z,4.00
2023-11-04T07:22:25.925Z,3.90
2023-11-04T07:27:29.399Z,3.90
2023-11-04T07:32:32.338Z,3.90
2023-11-04T07:37:35.522Z,4.10
2023-11-04T07:42:38.849Z,4.00
2023-11-04T07:47:42.567Z,3.90
2023-11-04T07:52:54.480Z,4.50
2023-11-04T07:58:02.078Z,3.60
2023-11-04T08:03:05.237Z,5.00
2023-11-04T08:08:11.496Z,4.70
2023-11-04T08:13:14.953Z,4.50
2023-11-04T08:18:18.200Z,4.20
2023-11-04T08:23:21.932Z,4.60
2023-11-04T08:28:26.683Z,4.20
2023-11-04T08:33:29.739Z,3.60
2023-11-04T08:38:34.233Z,3.30
2023-11-04T08:43:37.243Z,4.70
2023-11-04T08:48:41.994Z,4.80
2023-11-04T08:53:45.199Z,3.30
2023-11-04T08:58:48.412Z,4.50
2023-11-04T09:03:58.892Z,3.60
2023-11-04T09:09:10.613Z,3.80
2023-11-04T09:14:13.609Z,5.20
2023-11-04T09:19:17.047Z,4.10
2023-11-04T09:24:20.934Z,5.10
2023-11-04T09:29:25.690Z,3.40
2023-11-04T09:34:30.118Z,4.40
2023-11-04T09:39:33.918Z,4.60
2023-11-04T09:44:37.720Z,4.80
2023-11-04T09:49:40.777Z,5.00
2023-11-04T09:54:48.461Z,4.90
2023-11-04T09:59:51.842Z,5.60
2023-11-04T10:04:56.527Z,5.30
2023-11-04T10:09:59.754Z,5.50
2023-11-04T10:15:02.802Z,5.90
2023-11-04T10:20:12.599Z,4.40
2023-11-04T10:25:16.188Z,5.30
2023-11-04T10:30:19.600Z,5.40
2023-11-04T10:35:24.573Z,4.80
2023-11-04T10:40:28.114Z,5.80
2023-11-04T10:45:50.662Z,7.60
2023-11-04T10:51:08.928Z,5.90
2023-11-04T10:56:42.733Z,5.50
2023-11-04T11:01:48.232Z,5.10
2023-11-04T11:06:52.770Z,4.90
2023-11-04T11:12:03.546Z,6.50
2023-11-04T11:17:09.171Z,5.90
2023-11-04T11:22:25.416Z,5.30
2023-11-04T11:27:28.627Z,5.90
2023-11-04T11:32:36.363Z,4.70
2023-11-04T11:37:39.455Z,4.60
2023-11-04T11:42:42.791Z,4.10
2023-11-04T11:47:45.834Z,5.00
2023-11-04T11:52:48.984Z,4.40
2023-11-04T11:57:52.628Z,4.00
2023-11-04T12:02:56.124Z,4.30
2023-11-04T12:07:59.866Z,5.50
2023-11-04T12:13:03.125Z,5.00
2023-11-04T12:18:07.561Z,4.10
2023-11-04T12:23:12.062Z,4.40
2023-11-04T12:28:15.520Z,4.20
2023-11-04T12:33:21.256Z,4.60
2023-11-04T12:38:25.169Z,4.50
2023-11-04T12:43:29.403Z,4.40
2023-11-04T12:48:33.137Z,5.10
2023-11-04T12:53:36.433Z,6.10
2023-11-04T12:58:39.905Z,6.00
2023-11-04T13:03:43.414Z,5.10
2023-11-04T13:08:46.597Z,5.40
2023-11-04T13:13:49.597Z,5.20
2023-11-04T13:18:53.320Z,5.40
2023-11-04T13:23:56.424Z,5.40
2023-11-04T13:28:59.942Z,5.40
2023-11-04T13:34:03.548Z,5.30
2023-11-04T13:39:12.477Z,6.20
2023-11-04T13:44:16.128Z,4.80
2023-11-04T13:49:19.793Z,4.50
2023-11-04T13:54:23.476Z,5.10
2023-11-04T13:59:26.581Z,4.80
2023-11-04T14:04:29.635Z,4.20
2023-11-04T14:09:32.807Z,3.70
2023-11-04T14:14:36.154Z,5.40
2023-11-04T14:19:39.559Z,4.90
2023-11-04T14:24:42.715Z,5.90
2023-11-04T14:29:46.259Z,3.50
2023-11-04T14:34:50.101Z,4.50
2023-11-04T14:39:54.163Z,4.40
2023-11-04T14:44:57.749Z,4.90
2023-11-04T14:50:02.398Z,5.00
2023-11-04T14:55:07.704Z,5.20
2023-11-04T15:00:11.900Z,3.90
2023-11-04T15:05:14.932Z,5.30
2023-11-04T15:10:18.158Z,4.50
2023-11-04T15:15:21.210Z,4.30
2023-11-04T15:20:24.222Z,6.10
2023-11-04T15:25:27.240Z,6.60
2023-11-04T15:30:30.591Z,7.40
2023-11-04T15:35:34.406Z,8.90
2023-11-04T15:40:38.907Z,8.20
2023-11-04T15:45:42.040Z,7.90
2023-11-04T15:50:45.450Z,8.00
2023-11-04T15:55:48.698Z,8.50
2023-11-04T16:00:55.155Z,9.50
2023-11-04T16:05:58.135Z,7.10
2023-11-04T16:11:01.490Z,7.50
2023-11-04T16:16:07.097Z,9.30
2023-11-04T16:21:10.126Z,9.20
2023-11-04T16:26:14.547Z,7.40
2023-11-04T16:31:24.383Z,10.90
2023-11-04T16:36:27.693Z,9.10
2023-11-04T16:41:30.656Z,10.40
2023-11-04T16:46:33.674Z,8.20
2023-11-04T16:51:36.881Z,6.90
2023-11-04T16:56:40.197Z,9.90
2023-11-04T17:01:43.195Z,10.00
2023-11-04T17:06:46.221Z,9.30
2023-11-04T17:11:49.312Z,9.70
2023-11-04T17:16:52.523Z,9.50
2023-11-04T17:21:55.969Z,8.10
2023-11-04T17:26:59.047Z,6.50
2023-11-04T17:32:02.069Z,7.50
2023-11-04T17:37:05.132Z,8.70
2023-11-04T17:42:08.169Z,8.70
2023-11-04T17:47:11.180Z,8.30
2023-11-04T17:52:14.233Z,7.80
2023-11-04T17:57:17.293Z,7.80
2023-11-04T18:02:20.315Z,8.20
2023-11-04T18:07:25.193Z,6.60
2023-11-04T18:12:28.369Z,6.40
2023-11-04T18:17:31.445Z,7.00
2023-11-04T18:22:34.894Z,7.30
2023-11-04T18:27:51.089Z,8.00
2023-11-04T18:33:01.639Z,9.70
2023-11-04T18:38:04.849Z,9.20
2023-11-04T18:43:08.227Z,11.10
2023-11-04T18:48:11.416Z,10.40
2023-11-04T18:53:14.837Z,7.50
2023-11-04T18:58:17.963Z,9.30
2023-11-04T19:03:21.059Z,9.20
2023-11-04T19:08:25.103Z,8.50
2023-11-04T19:13:28.232Z,7.00
2023-11-04T19:18:31.486Z,8.90
2023-11-04T19:23:35.605Z,9.50
2023-11-04T19:28:38.670Z,7.50
2023-11-04T19:33:41.840Z,9.70
2023-11-04T19:38:45.110Z,9.00
2023-11-04T19:43:48.937Z,9.40
2023-11-04T19:48:52.252Z,6.90
2023-11-04T19:53:55.639Z,11.70
2023-11-04T19:58:58.984Z,9.00
2023-11-04T20:04:02.950Z,8.80
2023-11-04T20:09:07.226Z,9.20
2023-11-04T20:14:11.042Z,20.40
2023-11-04T20:19:16.414Z,9.20
2023-11-04T20:24:22.273Z,8.60
2023-11-04T20:29:26.106Z,10.10
2023-11-04T20:34:29.357Z,8.90
2023-11-04T20:39:33.044Z,8.80
2023-11-04T20:44:36.352Z,9.30
2023-11-04T20:49:40.040Z,10.10
2023-11-04T20:54:43.489Z,5.70
2023-11-04T20:59:47.013Z,7.10
2023-11-04T21:04:50.130Z,8.30
2023-11-04T21:09:53.510Z,5.90
2023-11-04T21:14:56.961Z,8.20
2023-11-04T21:20:00.986Z,5.80
2023-11-04T21:25:04.206Z,8.70
2023-11-04T21:30:08.944Z,7.20
2023-11-04T21:35:12.057Z,8.10
2023-11-04T21:40:15.291Z,7.40
2023-11-04T21:45:19.566Z,6.10
2023-11-04T21:50:26.800Z,7.50
2023-11-04T21:55:29.763Z,8.40
2023-11-04T22:00:32.817Z,7.60
2023-11-04T22:05:37.357Z,8.20
2023-11-04T22:10:41.693Z,9.40
2023-11-04T22:15:45.116Z,6.60
2023-11-04T22:20:48.122Z,6.70
2023-11-04T22:25:51.474Z,7.40
2023-11-04T22:30:54.580Z,8.70
2023-11-04T22:35:57.554Z,6.90
2023-11-04T22:41:02.267Z,7.10
2023-11-04T22:46:06.047Z,7.40
2023-11-04T22:51:09.039Z,8.10
2023-11-04T22:56:12.042Z,8.50
2023-11-04T23:01:21.253Z,11.00
2023-11-04T23:06:26.959Z,9.30
2023-11-04T23:11:32.184Z,7.60
2023-11-04T23:16:35.609Z,6.50
2023-11-04T23:21:38.646Z,8.30
2023-11-04T23:26:41.686Z,7.00
2023-11-04T23:31:44.766Z,8.40
2023-11-04T23:36:47.779Z,5.50
2023-11-04T23:41:50.990Z,7.10
2023-11-04T23:46:54.088Z,7.70
2023-11-04T23:51:57.206Z,6.50
2023-11-04T23:57:00.204Z,8.00
